sensor_id;sensor_type;location;lat;lon;timestamp;pressure;altitude;pressure_sealevel;temperature;humidity
45357;BME280;31092;51.924;21.448;2022-11-09T00:01:16;100427.81;;;5.53;100.00
45357;BME280;31092;51.924;21.448;2022-11-09T00:03:41;100432.91;;;5.56;100.00
45357;BME280;31092;51.924;21.448;2022-11-09T00:06:07;100434.59;;;5.57;100.00
45357;BME280;31092;51.924;21.448;2022-11-09T00:08:32;100433.59;;;5.58;100.00
45357;BME280;31092;51.924;21.448;2022-11-09T00:11:05;100333.59;;;4.98;100.00
45357;BME280;31092;51.924;21.448;2022-11-09T00:13:35;100436.09;;;5.71;100.00
45357;BME280;31092;51.924;21.448;2022-11-09T00:16:01;100333.56;;;5.09;100.00
45357;BME280;31092;51.924;21.448;2022-11-09T00:18:27;100425.47;;;5.60;100.00
45357;BME280;31092;51.924;21.448;2022-11-09T00:20:53;100439.16;;;5.66;100.00
45357;BME280;31092;51.924;21.448;2022-11-09T00:23:19;100432.66;;;5.59;100.00
45357;BME280;31092;51.924;21.448;2022-11-09T00:25:44;100428.19;;;5.48;100.00
45357;BME280;31092;51.924;21.448;2022-11-09T00:28:10;100429.53;;;5.43;100.00
45357;BME280;31092;51.924;21.448;2022-11-09T00:30:35;100392.06;;;5.01;100.00
45357;BME280;31092;51.924;21.448;2022-11-09T00:33:01;100348.63;;;4.67;100.00
45357;BME280;31092;51.924;21.448;2022-11-09T00:35:26;100400.31;;;4.98;100.00
45357;BME280;31092;51.924;21.448;2022-11-09T00:37:53;100439.13;;;5.13;100.00
45357;BME280;31092;51.924;21.448;2022-11-09T00:40:18;100372.38;;;4.81;100.00
45357;BME280;31092;51.924;21.448;2022-11-09T00:42:44;100424.69;;;5.04;100.00
45357;BME280;31092;51.924;21.448;2022-11-09T00:45:09;100438.34;;;5.22;100.00
45357;BME280;31092;51.924;21.448;2022-11-09T00:47:35;100368.88;;;4.80;100.00
45357;BME280;31092;51.924;21.448;2022-11-09T00:50:00;100391.81;;;5.04;100.00
45357;BME280;31092;51.924;21.448;2022-11-09T00:52:26;100327.38;;;4.76;100.00
45357;BME280;31092;51.924;21.448;2022-11-09T00:54:51;100427.72;;;5.43;100.00
45357;BME280;31092;51.924;21.448;2022-11-09T00:57:17;100363.19;;;5.06;100.00
45357;BME280;31092;51.924;21.448;2022-11-09T00:59:42;100424.81;;;5.46;100.00
45357;BME280;31092;51.924;21.448;2022-11-09T01:02:08;100422.13;;;5.46;100.00
45357;BME280;31092;51.924;21.448;2022-11-09T01:04:33;100341.84;;;5.06;100.00
45357;BME280;31092;51.924;21.448;2022-11-09T01:06:58;100433.22;;;5.63;100.00
45357;BME280;31092;51.924;21.448;2022-11-09T01:09:24;100326.91;;;5.03;100.00
45357;BME280;31092;51.924;21.448;2022-11-09T01:11:50;100397.25;;;5.46;100.00
45357;BME280;31092;51.924;21.448;2022-11-09T01:14:15;100428.72;;;5.63;100.00
45357;BME280;31092;51.924;21.448;2022-11-09T01:16:41;100435.25;;;5.70;100.00
45357;BME280;31092;51.924;21.448;2022-11-09T01:19:06;100381.03;;;5.38;100.00
45357;BME280;31092;51.924;21.448;2022-11-09T01:21:32;100412.38;;;5.57;100.00
45357;BME280;31092;51.924;21.448;2022-11-09T01:23:57;100251.66;;;4.56;100.00
45357;BME280;31092;51.924;21.448;2022-11-09T01:26:23;100327.66;;;5.06;100.00
45357;BME280;31092;51.924;21.448;2022-11-09T01:28:49;100399.91;;;5.46;100.00
45357;BME280;31092;51.924;21.448;2022-11-09T01:31:19;100383.56;;;5.39;100.00
45357;BME280;31092;51.924;21.448;2022-11-09T01:33:45;100429.31;;;5.67;100.00
45357;BME280;31092;51.924;21.448;2022-11-09T01:36:16;100419.53;;;5.56;100.00
45357;BME280;31092;51.924;21.448;2022-11-09T01:38:42;100335.00;;;5.13;100.00
45357;BME280;31092;51.924;21.448;2022-11-09T01:41:15;100386.09;;;5.41;100.00
45357;BME280;31092;51.924;21.448;2022-11-09T01:43:41;100334.91;;;5.03;100.00
45357;BME280;31092;51.924;21.448;2022-11-09T01:46:35;100434.06;;;5.63;100.00
45357;BME280;31092;51.924;21.448;2022-11-09T01:49:05;100320.13;;;4.99;100.00
45357;BME280;31092;51.924;21.448;2022-11-09T01:51:48;100424.47;;;5.61;100.00
45357;BME280;31092;51.924;21.448;2022-11-09T01:54:19;100409.94;;;5.53;100.00
45357;BME280;31092;51.924;21.448;2022-11-09T01:56:49;100390.31;;;5.43;100.00
45357;BME280;31092;51.924;21.448;2022-11-09T01:59:20;100269.53;;;4.77;100.00
45357;BME280;31092;51.924;21.448;2022-11-09T02:01:47;100343.22;;;5.21;100.00
45357;BME280;31092;51.924;21.448;2022-11-09T02:04:23;100423.13;;;5.66;100.00
45357;BME280;31092;51.924;21.448;2022-11-09T02:06:50;100369.78;;;5.44;100.00
45357;BME280;31092;51.924;21.448;2022-11-09T02:09:34;100433.34;;;5.82;100.00
45357;BME280;31092;51.924;21.448;2022-11-09T02:12:02;100415.31;;;5.74;100.00
45357;BME280;31092;51.924;21.448;2022-11-09T02:14:29;100416.91;;;5.87;100.00
45357;BME280;31092;51.924;21.448;2022-11-09T02:16:55;100406.69;;;5.71;100.00
45357;BME280;31092;51.924;21.448;2022-11-09T02:19:21;100419.72;;;5.85;100.00
45357;BME280;31092;51.924;21.448;2022-11-09T02:21:46;100332.72;;;5.29;100.00
45357;BME280;31092;51.924;21.448;2022-11-09T02:24:12;100319.91;;;5.23;100.00
45357;BME280;31092;51.924;21.448;2022-11-09T02:26:40;100402.19;;;5.71;100.00
45357;BME280;31092;51.924;21.448;2022-11-09T02:29:09;100364.34;;;5.45;100.00
45357;BME280;31092;51.924;21.448;2022-11-09T02:31:39;100328.50;;;5.27;100.00
45357;BME280;31092;51.924;21.448;2022-11-09T02:34:13;100306.72;;;5.11;100.00
45357;BME280;31092;51.924;21.448;2022-11-09T02:36:39;100313.97;;;5.20;100.00
45357;BME280;31092;51.924;21.448;2022-11-09T02:39:05;100356.44;;;5.44;100.00
45357;BME280;31092;51.924;21.448;2022-11-09T02:41:31;100310.25;;;5.11;100.00
45357;BME280;31092;51.924;21.448;2022-11-09T02:43:59;100343.16;;;5.33;100.00
45357;BME280;31092;51.924;21.448;2022-11-09T02:46:35;100316.19;;;5.15;100.00
45357;BME280;31092;51.924;21.448;2022-11-09T02:49:02;100308.41;;;5.12;100.00
45357;BME280;31092;51.924;21.448;2022-11-09T02:51:28;100390.25;;;5.55;100.00
45357;BME280;31092;51.924;21.448;2022-11-09T02:53:54;100288.69;;;5.03;100.00
45357;BME280;31092;51.924;21.448;2022-11-09T02:56:20;100303.22;;;5.10;100.00
45357;BME280;31092;51.924;21.448;2022-11-09T02:58:45;100378.41;;;5.47;100.00
45357;BME280;31092;51.924;21.448;2022-11-09T03:01:11;100356.97;;;5.38;100.00
45357;BME280;31092;51.924;21.448;2022-11-09T03:03:36;100321.66;;;5.13;100.00
45357;BME280;31092;51.924;21.448;2022-11-09T03:06:02;100403.38;;;5.58;100.00
45357;BME280;31092;51.924;21.448;2022-11-09T03:08:28;100321.78;;;5.12;100.00
45357;BME280;31092;51.924;21.448;2022-11-09T03:10:53;100399.50;;;5.50;100.00
45357;BME280;31092;51.924;21.448;2022-11-09T03:13:19;100407.41;;;5.52;100.00
45357;BME280;31092;51.924;21.448;2022-11-09T03:15:44;100308.28;;;4.92;100.00
45357;BME280;31092;51.924;21.448;2022-11-09T03:18:10;100338.31;;;5.06;100.00
45357;BME280;31092;51.924;21.448;2022-11-09T03:20:35;100322.22;;;4.96;100.00
45357;BME280;31092;51.924;21.448;2022-11-09T03:23:01;100313.03;;;4.89;100.00
45357;BME280;31092;51.924;21.448;2022-11-09T03:25:27;100329.38;;;4.95;100.00
45357;BME280;31092;51.924;21.448;2022-11-09T03:28:03;100396.50;;;5.44;100.00
45357;BME280;31092;51.924;21.448;2022-11-09T03:30:29;100369.41;;;5.27;100.00
45357;BME280;31092;51.924;21.448;2022-11-09T03:32:58;100293.56;;;4.77;100.00
45357;BME280;31092;51.924;21.448;2022-11-09T03:35:24;100225.75;;;4.47;100.00
45357;BME280;31092;51.924;21.448;2022-11-09T03:37:50;100294.94;;;4.92;100.00
45357;BME280;31092;51.924;21.448;2022-11-09T03:40:15;100334.41;;;5.10;100.00
45357;BME280;31092;51.924;21.448;2022-11-09T03:42:45;100292.38;;;4.91;100.00
45357;BME280;31092;51.924;21.448;2022-11-09T03:45:12;100296.50;;;4.95;100.00
45357;BME280;31092;51.924;21.448;2022-11-09T03:47:42;100277.16;;;4.82;100.00
45357;BME280;31092;51.924;21.448;2022-11-09T03:50:08;100303.63;;;4.94;100.00
45357;BME280;31092;51.924;21.448;2022-11-09T03:52:34;100372.75;;;5.41;100.00
45357;BME280;31092;51.924;21.448;2022-11-09T03:55:00;100377.44;;;5.48;100.00
45357;BME280;31092;51.924;21.448;2022-11-09T03:57:27;100360.59;;;5.37;100.00
45357;BME280;31092;51.924;21.448;2022-11-09T03:59:52;100290.19;;;4.96;100.00
45357;BME280;31092;51.924;21.448;2022-11-09T04:02:18;100341.53;;;5.20;100.00
45357;BME280;31092;51.924;21.448;2022-11-09T04:04:43;100300.94;;;5.06;100.00
45357;BME280;31092;51.924;21.448;2022-11-09T04:07:10;100358.34;;;5.32;100.00
45357;BME280;31092;51.924;21.448;2022-11-09T04:09:35;100389.91;;;5.59;100.00
45357;BME280;31092;51.924;21.448;2022-11-09T04:12:01;100296.56;;;5.04;100.00
45357;BME280;31092;51.924;21.448;2022-11-09T04:14:27;100271.16;;;4.89;100.00
45357;BME280;31092;51.924;21.448;2022-11-09T04:16:52;100298.38;;;5.04;100.00
45357;BME280;31092;51.924;21.448;2022-11-09T04:19:18;100285.09;;;4.93;100.00
45357;BME280;31092;51.924;21.448;2022-11-09T04:21:43;100266.59;;;4.80;100.00
45357;BME280;31092;51.924;21.448;2022-11-09T04:24:09;100386.81;;;5.43;100.00
45357;BME280;31092;51.924;21.448;2022-11-09T04:26:34;100362.50;;;5.25;100.00
45357;BME280;31092;51.924;21.448;2022-11-09T04:29:00;100377.28;;;5.29;100.00
45357;BME280;31092;51.924;21.448;2022-11-09T04:31:25;100400.06;;;5.33;100.00
45357;BME280;31092;51.924;21.448;2022-11-09T04:33:51;100361.47;;;5.16;100.00
45357;BME280;31092;51.924;21.448;2022-11-09T04:36:17;100369.53;;;5.26;100.00
45357;BME280;31092;51.924;21.448;2022-11-09T04:38:42;100376.00;;;5.23;100.00
45357;BME280;31092;51.924;21.448;2022-11-09T04:41:08;100278.44;;;4.66;100.00
45357;BME280;31092;51.924;21.448;2022-11-09T04:43:34;100374.88;;;5.26;100.00
45357;BME280;31092;51.924;21.448;2022-11-09T04:46:00;100300.19;;;4.83;100.00
45357;BME280;31092;51.924;21.448;2022-11-09T04:48:27;100375.09;;;5.34;100.00
45357;BME280;31092;51.924;21.448;2022-11-09T04:50:58;100275.13;;;4.74;100.00
45357;BME280;31092;51.924;21.448;2022-11-09T04:53:24;100267.13;;;4.74;100.00
45357;BME280;31092;51.924;21.448;2022-11-09T04:55:50;100385.63;;;5.36;100.00
45357;BME280;31092;51.924;21.448;2022-11-09T04:58:15;100274.13;;;4.75;100.00
45357;BME280;31092;51.924;21.448;2022-11-09T05:00:41;100355.72;;;5.21;100.00
45357;BME280;31092;51.924;21.448;2022-11-09T05:03:07;100362.50;;;5.25;100.00
45357;BME280;31092;51.924;21.448;2022-11-09T05:05:33;100383.09;;;5.34;100.00
45357;BME280;31092;51.924;21.448;2022-11-09T05:07:59;100320.13;;;4.99;100.00
45357;BME280;31092;51.924;21.448;2022-11-09T05:10:24;100342.75;;;5.16;100.00
45357;BME280;31092;51.924;21.448;2022-11-09T05:12:56;100370.94;;;5.41;100.00
45357;BME280;31092;51.924;21.448;2022-11-09T05:15:22;100278.44;;;4.87;100.00
45357;BME280;31092;51.924;21.448;2022-11-09T05:17:47;100245.09;;;4.61;100.00
45357;BME280;31092;51.924;21.448;2022-11-09T05:20:13;100380.47;;;5.44;100.00
45357;BME280;31092;51.924;21.448;2022-11-09T05:22:39;100271.22;;;4.78;100.00
45357;BME280;31092;51.924;21.448;2022-11-09T05:25:23;100350.38;;;5.21;100.00
45357;BME280;31092;51.924;21.448;2022-11-09T05:27:49;100280.91;;;4.79;100.00
45357;BME280;31092;51.924;21.448;2022-11-09T05:30:14;100291.53;;;4.90;100.00
45357;BME280;31092;51.924;21.448;2022-11-09T05:32:40;100382.84;;;5.37;100.00
45357;BME280;31092;51.924;21.448;2022-11-09T05:35:05;100368.69;;;5.25;100.00
45357;BME280;31092;51.924;21.448;2022-11-09T05:37:31;100316.88;;;4.96;100.00
45357;BME280;31092;51.924;21.448;2022-11-09T05:39:56;100301.03;;;4.83;100.00
45357;BME280;31092;51.924;21.448;2022-11-09T05:42:23;100365.41;;;5.22;100.00
45357;BME280;31092;51.924;21.448;2022-11-09T05:44:48;100301.16;;;4.82;100.00
45357;BME280;31092;51.924;21.448;2022-11-09T05:47:14;100284.22;;;4.71;100.00
45357;BME280;31092;51.924;21.448;2022-11-09T05:49:39;100273.78;;;4.68;100.00
45357;BME280;31092;51.924;21.448;2022-11-09T05:52:05;100383.84;;;5.25;100.00
45357;BME280;31092;51.924;21.448;2022-11-09T05:54:30;100282.78;;;4.67;100.00
45357;BME280;31092;51.924;21.448;2022-11-09T05:56:56;100267.53;;;4.58;100.00
45357;BME280;31092;51.924;21.448;2022-11-09T05:59:21;100375.41;;;5.20;100.00
45357;BME280;31092;51.924;21.448;2022-11-09T06:01:47;100387.84;;;5.31;100.00
45357;BME280;31092;51.924;21.448;2022-11-09T06:04:12;100292.38;;;4.70;100.00
45357;BME280;31092;51.924;21.448;2022-11-09T06:06:38;100346.34;;;5.06;100.00
45357;BME280;31092;51.924;21.448;2022-11-09T06:09:03;100316.41;;;4.91;100.00
45357;BME280;31092;51.924;21.448;2022-11-09T06:11:29;100259.41;;;4.60;100.00
45357;BME280;31092;51.924;21.448;2022-11-09T06:13:54;100317.72;;;4.96;100.00
45357;BME280;31092;51.924;21.448;2022-11-09T06:16:20;100321.31;;;5.07;100.00
45357;BME280;31092;51.924;21.448;2022-11-09T06:18:45;100288.63;;;4.93;100.00
45357;BME280;31092;51.924;21.448;2022-11-09T06:21:11;100295.97;;;5.01;100.00
45357;BME280;31092;51.924;21.448;2022-11-09T06:23:36;100283.88;;;4.97;100.00
45357;BME280;31092;51.924;21.448;2022-11-09T06:26:06;100348.72;;;5.41;100.00
45357;BME280;31092;51.924;21.448;2022-11-09T06:28:34;100219.47;;;4.69;100.00
45357;BME280;31092;51.924;21.448;2022-11-09T06:31:01;100297.22;;;5.18;100.00
45357;BME280;31092;51.924;21.448;2022-11-09T06:33:29;100391.00;;;5.78;100.00
45357;BME280;31092;51.924;21.448;2022-11-09T06:35:56;100373.59;;;5.62;100.00
45357;BME280;31092;51.924;21.448;2022-11-09T06:38:22;100378.16;;;5.71;100.00
45357;BME280;31092;51.924;21.448;2022-11-09T06:40:52;100363.22;;;5.69;100.00
45357;BME280;31092;51.924;21.448;2022-11-09T06:43:17;100392.59;;;5.90;100.00
45357;BME280;31092;51.924;21.448;2022-11-09T06:45:43;100333.53;;;5.62;100.00
45357;BME280;31092;51.924;21.448;2022-11-09T06:48:09;100292.63;;;5.41;100.00
45357;BME280;31092;51.924;21.448;2022-11-09T06:50:35;100295.16;;;5.42;100.00
45357;BME280;31092;51.924;21.448;2022-11-09T06:53:06;100292.41;;;5.53;100.00
45357;BME280;31092;51.924;21.448;2022-11-09T06:55:33;100340.66;;;5.83;100.00
45357;BME280;31092;51.924;21.448;2022-11-09T06:58:03;100371.34;;;6.09;100.00
45357;BME280;31092;51.924;21.448;2022-11-09T07:00:29;100305.59;;;5.76;100.00
45357;BME280;31092;51.924;21.448;2022-11-09T07:02:55;100357.72;;;6.12;100.00
45357;BME280;31092;51.924;21.448;2022-11-09T07:05:21;100288.84;;;5.74;100.00
45357;BME280;31092;51.924;21.448;2022-11-09T07:07:46;100382.66;;;6.22;100.00
45357;BME280;31092;51.924;21.448;2022-11-09T07:10:12;100295.63;;;5.78;100.00
45357;BME280;31092;51.924;21.448;2022-11-09T07:12:37;100343.78;;;6.09;100.00
45357;BME280;31092;51.924;21.448;2022-11-09T07:15:03;100294.09;;;5.85;100.00
45357;BME280;31092;51.924;21.448;2022-11-09T07:17:33;100371.75;;;6.35;100.00
45357;BME280;31092;51.924;21.448;2022-11-09T07:19:58;100355.38;;;6.29;100.00
45357;BME280;31092;51.924;21.448;2022-11-09T07:22:26;100363.84;;;6.34;100.00
45357;BME280;31092;51.924;21.448;2022-11-09T07:24:52;100376.19;;;6.56;100.00
45357;BME280;31092;51.924;21.448;2022-11-09T07:27:17;100286.91;;;6.07;100.00
45357;BME280;31092;51.924;21.448;2022-11-09T07:29:43;100371.69;;;6.66;100.00
45357;BME280;31092;51.924;21.448;2022-11-09T07:32:09;100369.16;;;6.74;100.00
45357;BME280;31092;51.924;21.448;2022-11-09T07:34:34;100278.66;;;6.29;100.00
45357;BME280;31092;51.924;21.448;2022-11-09T07:36:59;100350.28;;;6.76;100.00
45357;BME280;31092;51.924;21.448;2022-11-09T07:39:25;100291.66;;;6.53;100.00
45357;BME280;31092;51.924;21.448;2022-11-09T07:41:50;100381.63;;;7.14;100.00
45357;BME280;31092;51.924;21.448;2022-11-09T07:44:16;100363.72;;;7.05;100.00
45357;BME280;31092;51.924;21.448;2022-11-09T07:46:48;100284.78;;;6.70;100.00
45357;BME280;31092;51.924;21.448;2022-11-09T07:49:15;100301.69;;;6.90;100.00
45357;BME280;31092;51.924;21.448;2022-11-09T07:51:41;100342.84;;;7.28;100.00
45357;BME280;31092;51.924;21.448;2022-11-09T07:54:07;100344.97;;;7.43;100.00
45357;BME280;31092;51.924;21.448;2022-11-09T07:56:33;100373.13;;;7.67;100.00
45357;BME280;31092;51.924;21.448;2022-11-09T07:58:58;100274.59;;;7.22;100.00
45357;BME280;31092;51.924;21.448;2022-11-09T08:01:24;100353.06;;;7.81;100.00
45357;BME280;31092;51.924;21.448;2022-11-09T08:03:51;100321.88;;;7.80;100.00
45357;BME280;31092;51.924;21.448;2022-11-09T08:06:17;100290.59;;;7.61;100.00
45357;BME280;31092;51.924;21.448;2022-11-09T08:08:42;100361.97;;;8.19;100.00
45357;BME280;31092;51.924;21.448;2022-11-09T08:11:08;100360.06;;;8.29;100.00
45357;BME280;31092;51.924;21.448;2022-11-09T08:13:33;100353.84;;;8.38;100.00
45357;BME280;31092;51.924;21.448;2022-11-09T08:16:02;100277.84;;;8.10;100.00
45357;BME280;31092;51.924;21.448;2022-11-09T08:18:28;100336.13;;;8.55;100.00
45357;BME280;31092;51.924;21.448;2022-11-09T08:20:54;100264.09;;;8.23;100.00
45357;BME280;31092;51.924;21.448;2022-11-09T08:23:20;100335.44;;;8.71;100.00
45357;BME280;31092;51.924;21.448;2022-11-09T08:25:47;100329.09;;;8.72;100.00
45357;BME280;31092;51.924;21.448;2022-11-09T08:28:13;100260.91;;;8.37;100.00
45357;BME280;31092;51.924;21.448;2022-11-09T08:30:43;100320.16;;;8.71;100.00
45357;BME280;31092;51.924;21.448;2022-11-09T08:33:10;100326.63;;;8.78;100.00
45357;BME280;31092;51.924;21.448;2022-11-09T08:35:36;100340.69;;;8.90;100.00
45357;BME280;31092;51.924;21.448;2022-11-09T08:38:03;100348.75;;;8.90;100.00
45357;BME280;31092;51.924;21.448;2022-11-09T08:40:31;100260.78;;;8.56;100.00
45357;BME280;31092;51.924;21.448;2022-11-09T08:43:01;100346.69;;;9.20;100.00
45357;BME280;31092;51.924;21.448;2022-11-09T08:45:27;100319.09;;;9.18;100.00
45357;BME280;31092;51.924;21.448;2022-11-09T08:47:57;100318.69;;;9.48;100.00
45357;BME280;31092;51.924;21.448;2022-11-09T08:50:23;100340.94;;;9.84;100.00
45357;BME280;31092;51.924;21.448;2022-11-09T08:52:48;100259.41;;;9.32;100.00
45357;BME280;31092;51.924;21.448;2022-11-09T08:55:14;100253.38;;;9.30;100.00
45357;BME280;31092;51.924;21.448;2022-11-09T08:57:39;100318.19;;;9.53;100.00
45357;BME280;31092;51.924;21.448;2022-11-09T09:00:05;100268.25;;;9.24;100.00
45357;BME280;31092;51.924;21.448;2022-11-09T09:02:31;100350.03;;;9.83;100.00
45357;BME280;31092;51.924;21.448;2022-11-09T09:04:56;100337.16;;;9.69;100.00
45357;BME280;31092;51.924;21.448;2022-11-09T09:07:22;100340.84;;;9.94;100.00
45357;BME280;31092;51.924;21.448;2022-11-09T09:09:47;100268.88;;;9.96;100.00
45357;BME280;31092;51.924;21.448;2022-11-09T09:12:13;100274.47;;;10.45;100.00
45357;BME280;31092;51.924;21.448;2022-11-09T09:14:38;100325.47;;;11.14;100.00
45357;BME280;31092;51.924;21.448;2022-11-09T09:17:04;100306.75;;;11.37;100.00
45357;BME280;31092;51.924;21.448;2022-11-09T09:19:29;100240.03;;;11.22;100.00
45357;BME280;31092;51.924;21.448;2022-11-09T09:21:56;100263.91;;;11.58;100.00
45357;BME280;31092;51.924;21.448;2022-11-09T09:24:22;100265.38;;;11.69;100.00
45357;BME280;31092;51.924;21.448;2022-11-09T09:26:47;100305.66;;;11.95;100.00
45357;BME280;31092;51.924;21.448;2022-11-09T09:29:13;100231.41;;;11.43;100.00
45357;BME280;31092;51.924;21.448;2022-11-09T09:31:39;100275.03;;;11.55;100.00
45357;BME280;31092;51.924;21.448;2022-11-09T09:34:05;100281.44;;;11.54;100.00
45357;BME280;31092;51.924;21.448;2022-11-09T09:36:31;100291.22;;;11.63;100.00
45357;BME280;31092;51.924;21.448;2022-11-09T09:38:57;100303.84;;;11.63;100.00
45357;BME280;31092;51.924;21.448;2022-11-09T09:46:52;100245.75;;;10.95;100.00
45357;BME280;31092;51.924;21.448;2022-11-09T09:49:28;100269.53;;;10.99;100.00
45357;BME280;31092;51.924;21.448;2022-11-09T09:54:49;100296.47;;;10.99;100.00
45357;BME280;31092;51.924;21.448;2022-11-09T09:57:20;100301.84;;;10.91;100.00
45357;BME280;31092;51.924;21.448;2022-11-09T09:59:49;100250.94;;;10.55;100.00
45357;BME280;31092;51.924;21.448;2022-11-09T10:02:23;100227.19;;;10.51;100.00
45357;BME280;31092;51.924;21.448;2022-11-09T10:04:50;100306.38;;;10.99;100.00
45357;BME280;31092;51.924;21.448;2022-11-09T10:07:31;100304.72;;;11.14;100.00
45357;BME280;31092;51.924;21.448;2022-11-09T10:15:08;100320.72;;;11.48;100.00
45357;BME280;31092;51.924;21.448;2022-11-09T10:26:22;100297.41;;;11.80;100.00
45357;BME280;31092;51.924;21.448;2022-11-09T10:29:00;100294.50;;;12.06;100.00
45357;BME280;31092;51.924;21.448;2022-11-09T10:31:30;100237.00;;;11.97;100.00
45357;BME280;31092;51.924;21.448;2022-11-09T10:34:02;100254.75;;;12.23;100.00
45357;BME280;31092;51.924;21.448;2022-11-09T10:36:39;100308.53;;;12.72;100.00
45357;BME280;31092;51.924;21.448;2022-11-09T10:39:11;100242.81;;;12.49;100.00
45357;BME280;31092;51.924;21.448;2022-11-09T10:41:40;100238.28;;;12.41;100.00
45357;BME280;31092;51.924;21.448;2022-11-09T10:44:18;100222.53;;;12.21;100.00
45357;BME280;31092;51.924;21.448;2022-11-09T10:47:07;100282.72;;;12.38;100.00
45357;BME280;31092;51.924;21.448;2022-11-09T10:49:33;100212.06;;;11.95;100.00
45357;BME280;31092;51.924;21.448;2022-11-09T10:51:59;100278.16;;;12.39;100.00
45357;BME280;31092;51.924;21.448;2022-11-09T10:54:28;100268.72;;;12.35;100.00
45357;BME280;31092;51.924;21.448;2022-11-09T10:57:21;100279.66;;;12.41;100.00
45357;BME280;31092;51.924;21.448;2022-11-09T10:59:55;100254.13;;;12.21;100.00
45357;BME280;31092;51.924;21.448;2022-11-09T11:07:43;100279.53;;;12.35;100.00
45357;BME280;31092;51.924;21.448;2022-11-09T11:12:44;100269.91;;;12.32;100.00
45357;BME280;31092;51.924;21.448;2022-11-09T11:18:11;100186.59;;;11.82;100.00
45357;BME280;31092;51.924;21.448;2022-11-09T11:20:37;100197.56;;;11.88;100.00
45357;BME280;31092;51.924;21.448;2022-11-09T11:23:18;100252.81;;;12.09;100.00
45357;BME280;31092;51.924;21.448;2022-11-09T11:30:50;100233.00;;;11.85;100.00
45357;BME280;31092;51.924;21.448;2022-11-09T11:33:16;100215.16;;;11.68;100.00
45357;BME280;31092;51.924;21.448;2022-11-09T11:36:09;100251.91;;;11.85;100.00
45357;BME280;31092;51.924;21.448;2022-11-09T11:46:44;100281.75;;;12.23;100.00
45357;BME280;31092;51.924;21.448;2022-11-09T11:49:56;100287.84;;;12.25;100.00
45357;BME280;31092;51.924;21.448;2022-11-09T12:00:34;100207.78;;;12.01;100.00
45357;BME280;31092;51.924;21.448;2022-11-09T12:05:57;100274.25;;;12.41;100.00
45357;BME280;31092;51.924;21.448;2022-11-09T12:11:44;100266.06;;;12.27;100.00
45357;BME280;31092;51.924;21.448;2022-11-09T12:14:35;100269.81;;;12.17;100.00
45357;BME280;31092;51.924;21.448;2022-11-09T12:19:57;100268.66;;;12.12;100.00
45357;BME280;31092;51.924;21.448;2022-11-09T12:25:08;100276.59;;;12.13;100.00
45357;BME280;31092;51.924;21.448;2022-11-09T12:30:17;100271.84;;;12.15;100.00
45357;BME280;31092;51.924;21.448;2022-11-09T12:32:58;100181.94;;;11.67;100.00
45357;BME280;31092;51.924;21.448;2022-11-09T12:38:12;100279.06;;;12.31;100.00
45357;BME280;31092;51.924;21.448;2022-11-09T12:40:47;100276.34;;;12.31;100.00
45357;BME280;31092;51.924;21.448;2022-11-09T12:43:24;100176.34;;;11.69;100.00
45357;BME280;31092;51.924;21.448;2022-11-09T12:45:52;100242.34;;;12.06;100.00
45357;BME280;31092;51.924;21.448;2022-11-09T12:50:44;100199.75;;;11.77;100.00
45357;BME280;31092;51.924;21.448;2022-11-09T12:53:09;100244.53;;;12.10;100.00
45357;BME280;31092;51.924;21.448;2022-11-09T12:55:42;100270.63;;;12.26;100.00
45357;BME280;31092;51.924;21.448;2022-11-09T12:58:24;100182.19;;;11.81;100.00
45357;BME280;31092;51.924;21.448;2022-11-09T13:00:56;100248.88;;;12.19;100.00
45357;BME280;31092;51.924;21.448;2022-11-09T13:03:31;100193.69;;;11.83;100.00
45357;BME280;31092;51.924;21.448;2022-11-09T13:06:16;100266.09;;;12.18;100.00
45357;BME280;31092;51.924;21.448;2022-11-09T13:09:05;100267.81;;;12.11;100.00
45357;BME280;31092;51.924;21.448;2022-11-09T13:11:40;100260.78;;;11.94;100.00
45357;BME280;31092;51.924;21.448;2022-11-09T13:29:57;100278.91;;;11.61;100.00
45357;BME280;31092;51.924;21.448;2022-11-09T13:32:26;100252.63;;;11.38;100.00
45357;BME280;31092;51.924;21.448;2022-11-09T13:34:56;100279.09;;;11.51;100.00
45357;BME280;31092;51.924;21.448;2022-11-09T13:43:12;100198.44;;;10.92;100.00
45357;BME280;31092;51.924;21.448;2022-11-09T13:45:58;100273.69;;;11.35;100.00
45357;BME280;31092;51.924;21.448;2022-11-09T13:48:30;100211.22;;;10.90;100.00
45357;BME280;31092;51.924;21.448;2022-11-09T13:51:06;100267.50;;;11.18;100.00
45357;BME280;31092;51.924;21.448;2022-11-09T13:56:14;100272.38;;;11.22;100.00
45357;BME280;31092;51.924;21.448;2022-11-09T13:58:44;100248.28;;;11.05;100.00
45357;BME280;31092;51.924;21.448;2022-11-09T14:03:54;100269.34;;;11.09;100.00
45357;BME280;31092;51.924;21.448;2022-11-09T14:06:19;100262.28;;;11.00;100.00
45357;BME280;31092;51.924;21.448;2022-11-09T14:08:45;100192.69;;;10.54;100.00
45357;BME280;31092;51.924;21.448;2022-11-09T14:11:27;100265.63;;;10.94;100.00
45357;BME280;31092;51.924;21.448;2022-11-09T14:16:52;100168.06;;;10.25;100.00
45357;BME280;31092;51.924;21.448;2022-11-09T14:21:56;100274.53;;;10.70;100.00
45357;BME280;31092;51.924;21.448;2022-11-09T14:24:27;100263.91;;;10.60;100.00
45357;BME280;31092;51.924;21.448;2022-11-09T14:35:18;100244.81;;;10.29;100.00
45357;BME280;31092;51.924;21.448;2022-11-09T14:37:44;100188.44;;;9.85;100.00